Greenville Spartanburg International Airport
KGSP : now visible

Airfield :











YOU CAN JOIN US ON...

 
LOGIN :

Register | Disclaimer

   EN    FR    IT 

 









Legend :    VFR   Marginal VFR   IFR   Intensive IFR   Very Intensive IFR
Visi :
Ceiling :
>= 8 km
>= 3000ft
5 to 8 km
1000 to 3000 ft
1500m to 5 km
500 to 1000 ft
800 to 1500m
200 to 500 ft
< 800m
< 200 ft
Symbols :   Thunderstorms  Fog  Heavy snow  Heavy precipitations  Wind > 20 kt






- Airport Elevation : 964 ft
- IATA code : GSP


KGSP - Greenville Spartanburg International

CURRENT METAR :
  • 021500Z 10003KT 3SM -RA BR BKN005 BKN037 OVC070 06/05 A3022 RMK AO2 P0002 T00610050

EXPIRED METARs :
  • 021453Z 08003KT 2 1/2SM RA BR BKN003 OVC008 06/05 A3022 RMK AO2 SLP235 P0006 60012 T00610050 51009
  • 021405Z 01004KT 2 1/2SM -RA BR BKN003 OVC008 06/04 A3023 RMK AO2 P0002 T00610044
  • 021353Z 02003KT 2SM -RA BR OVC005 06/05 A3022 RMK AO2 SLP234 P0002 T00610050
  • 021343Z 36003KT 2 1/2SM -RA BR SCT003 OVC008 06/04 A3022 RMK AO2 P0002 T00560044
  • 021329Z 01004KT 3SM -RA BR BKN003 BKN008 OVC039 06/04 A3021 RMK AO2 P0002 T00560044
  • 021321Z 02004KT 3SM -RA BR BKN005 OVC039 06/05 A3020 RMK AO2 P0001 T00560050
  • 021253Z 02004KT 4SM -RA BR BKN003 OVC007 06/04 A3020 RMK AO2 SLP228 P0004 T00560044
  • 021248Z 05004KT 3SM -RA BR BKN003 OVC007 06/04 A3020 RMK AO2 P0004
  • 021225Z 03004KT 5SM -RA BR OVC005 06/04 A3019 RMK AO2 P0002 T00560044

TAF KGSP
Valid from the 02 at 14:00 until the 03 at 12:00 UTC


021403Z 0214/0312 05005KT 3SM -RA BR OVC004
TEMPO 0214/0218 2SM -RA BR OVC006
FM022100 24004KT 2SM RA BR OVC003
FM030300 33005KT 3SM -RA BR OVC004
FM030800 35007KT 4SM BR VCSH BKN007
KZTL FIR / North America



MET'MAP, your aeronautical weather chart ! - Copyright ORBIFLY December 2007 - Disclaimer

ORBIFLY MET'MAP TEAM :

Programming & Development : Alexandra Zaïnal
Original concept : Baudouin d'Aumeries
Technical & hardware support : Manuel Goepfert
Assistance : Marc-Olivier Méhu




SOURCES & CREDITS :

   NOAA       Earth
Advisory